sensor_id;sensor_type;location;lat;lon;timestamp;temperature;humidity
25582;DHT22;13462;50.764;4.332;2022-12-07T00:01:46;5.20;99.90
25582;DHT22;13462;50.764;4.332;2022-12-07T00:04:36;5.20;99.90
25582;DHT22;13462;50.764;4.332;2022-12-07T00:07:38;5.20;99.90
25582;DHT22;13462;50.764;4.332;2022-12-07T00:10:26;5.30;99.90
25582;DHT22;13462;50.764;4.332;2022-12-07T00:15:33;5.10;99.90
25582;DHT22;13462;50.764;4.332;2022-12-07T00:18:25;5.10;99.90
25582;DHT22;13462;50.764;4.332;2022-12-07T00:21:01;4.90;99.90
25582;DHT22;13462;50.764;4.332;2022-12-07T00:23:36;4.80;99.90
25582;DHT22;13462;50.764;4.332;2022-12-07T00:26:26;4.70;99.90
25582;DHT22;13462;50.764;4.332;2022-12-07T00:28:59;4.70;99.90
25582;DHT22;13462;50.764;4.332;2022-12-07T00:31:27;4.70;99.90
25582;DHT22;13462;50.764;4.332;2022-12-07T00:33:53;4.70;99.90
25582;DHT22;13462;50.764;4.332;2022-12-07T00:36:22;4.70;99.90
25582;DHT22;13462;50.764;4.332;2022-12-07T00:38:52;4.70;99.90
25582;DHT22;13462;50.764;4.332;2022-12-07T00:45:16;4.60;99.90
25582;DHT22;13462;50.764;4.332;2022-12-07T00:47:39;4.40;99.90
25582;DHT22;13462;50.764;4.332;2022-12-07T00:50:05;4.30;99.90
25582;DHT22;13462;50.764;4.332;2022-12-07T00:52:31;4.30;99.90
25582;DHT22;13462;50.764;4.332;2022-12-07T00:55:12;4.10;99.90
25582;DHT22;13462;50.764;4.332;2022-12-07T00:57:43;4.10;99.90
25582;DHT22;13462;50.764;4.332;2022-12-07T01:00:09;4.00;99.90
25582;DHT22;13462;50.764;4.332;2022-12-07T01:26:29;4.00;99.90
25582;DHT22;13462;50.764;4.332;2022-12-07T01:32:17;4.00;99.90
25582;DHT22;13462;50.764;4.332;2022-12-07T01:34:48;3.80;99.90
25582;DHT22;13462;50.764;4.332;2022-12-07T01:37:14;3.80;99.90
25582;DHT22;13462;50.764;4.332;2022-12-07T01:39:40;3.70;99.90
25582;DHT22;13462;50.764;4.332;2022-12-07T01:42:10;3.70;99.90
25582;DHT22;13462;50.764;4.332;2022-12-07T01:48:05;3.70;99.90
25582;DHT22;13462;50.764;4.332;2022-12-07T02:07:34;3.70;99.90
25582;DHT22;13462;50.764;4.332;2022-12-07T02:10:21;3.70;99.90
25582;DHT22;13462;50.764;4.332;2022-12-07T02:13:11;3.80;99.90
25582;DHT22;13462;50.764;4.332;2022-12-07T02:26:17;4.10;99.90
25582;DHT22;13462;50.764;4.332;2022-12-07T02:35:42;4.30;99.90
25582;DHT22;13462;50.764;4.332;2022-12-07T02:48:23;4.50;99.90
25582;DHT22;13462;50.764;4.332;2022-12-07T02:50:53;4.60;99.90
25582;DHT22;13462;50.764;4.332;2022-12-07T02:53:51;4.70;99.90
25582;DHT22;13462;50.764;4.332;2022-12-07T02:59:15;4.70;99.90
25582;DHT22;13462;50.764;4.332;2022-12-07T03:11:04;5.00;99.90
25582;DHT22;13462;50.764;4.332;2022-12-07T03:13:53;5.00;99.90
25582;DHT22;13462;50.764;4.332;2022-12-07T03:16:31;5.00;99.90
25582;DHT22;13462;50.764;4.332;2022-12-07T03:19:03;5.00;99.90
25582;DHT22;13462;50.764;4.332;2022-12-07T03:21:39;4.90;99.90
25582;DHT22;13462;50.764;4.332;2022-12-07T03:24:15;4.80;99.90
25582;DHT22;13462;50.764;4.332;2022-12-07T03:26:47;4.80;99.90
25582;DHT22;13462;50.764;4.332;2022-12-07T03:29:26;4.70;99.90
25582;DHT22;13462;50.764;4.332;2022-12-07T03:32:11;4.70;99.90
25582;DHT22;13462;50.764;4.332;2022-12-07T03:37:14;4.50;99.90
25582;DHT22;13462;50.764;4.332;2022-12-07T03:39:58;4.50;99.90
25582;DHT22;13462;50.764;4.332;2022-12-07T03:42:26;4.40;99.90
25582;DHT22;13462;50.764;4.332;2022-12-07T03:44:51;4.30;99.90
25582;DHT22;13462;50.764;4.332;2022-12-07T03:48:26;4.30;99.90
25582;DHT22;13462;50.764;4.332;2022-12-07T03:50:28;4.30;99.90
25582;DHT22;13462;50.764;4.332;2022-12-07T03:53:09;4.30;99.90
25582;DHT22;13462;50.764;4.332;2022-12-07T03:55:40;4.30;99.90
25582;DHT22;13462;50.764;4.332;2022-12-07T03:58:10;4.40;99.90
25582;DHT22;13462;50.764;4.332;2022-12-07T04:00:37;4.40;99.90
25582;DHT22;13462;50.764;4.332;2022-12-07T04:03:03;4.40;99.90
25582;DHT22;13462;50.764;4.332;2022-12-07T04:05:29;4.50;99.90
25582;DHT22;13462;50.764;4.332;2022-12-07T04:07:55;4.70;99.90
25582;DHT22;13462;50.764;4.332;2022-12-07T04:10:21;4.60;99.90
25582;DHT22;13462;50.764;4.332;2022-12-07T04:12:47;4.60;99.90
25582;DHT22;13462;50.764;4.332;2022-12-07T04:15:13;4.50;99.90
25582;DHT22;13462;50.764;4.332;2022-12-07T04:17:45;4.40;99.90
25582;DHT22;13462;50.764;4.332;2022-12-07T04:20:11;4.30;99.90
25582;DHT22;13462;50.764;4.332;2022-12-07T04:22:43;4.20;99.90
25582;DHT22;13462;50.764;4.332;2022-12-07T04:25:11;4.10;99.90
25582;DHT22;13462;50.764;4.332;2022-12-07T04:27:37;4.00;99.90
25582;DHT22;13462;50.764;4.332;2022-12-07T04:30:04;4.00;99.90
25582;DHT22;13462;50.764;4.332;2022-12-07T04:32:30;3.90;99.90
25582;DHT22;13462;50.764;4.332;2022-12-07T04:34:55;4.00;99.90
25582;DHT22;13462;50.764;4.332;2022-12-07T04:37:24;4.10;99.90
25582;DHT22;13462;50.764;4.332;2022-12-07T04:39:50;4.10;99.90
25582;DHT22;13462;50.764;4.332;2022-12-07T04:42:16;4.10;99.90
25582;DHT22;13462;50.764;4.332;2022-12-07T04:44:42;4.10;99.90
25582;DHT22;13462;50.764;4.332;2022-12-07T04:47:08;4.10;99.90
25582;DHT22;13462;50.764;4.332;2022-12-07T04:49:33;4.10;99.90
25582;DHT22;13462;50.764;4.332;2022-12-07T04:51:59;4.10;99.90
25582;DHT22;13462;50.764;4.332;2022-12-07T04:54:27;4.10;99.90
25582;DHT22;13462;50.764;4.332;2022-12-07T04:56:53;4.20;99.90
25582;DHT22;13462;50.764;4.332;2022-12-07T04:59:19;4.20;99.90
25582;DHT22;13462;50.764;4.332;2022-12-07T05:01:45;4.20;99.90
25582;DHT22;13462;50.764;4.332;2022-12-07T05:04:10;4.20;99.90
25582;DHT22;13462;50.764;4.332;2022-12-07T05:06:39;4.20;99.90
25582;DHT22;13462;50.764;4.332;2022-12-07T05:09:05;4.20;99.90
25582;DHT22;13462;50.764;4.332;2022-12-07T05:11:31;4.30;99.90
25582;DHT22;13462;50.764;4.332;2022-12-07T05:14:14;4.30;99.90
25582;DHT22;13462;50.764;4.332;2022-12-07T05:16:41;4.50;99.90
25582;DHT22;13462;50.764;4.332;2022-12-07T05:19:08;4.50;99.90
25582;DHT22;13462;50.764;4.332;2022-12-07T05:21:34;4.50;99.90
25582;DHT22;13462;50.764;4.332;2022-12-07T05:24:00;4.50;99.90
25582;DHT22;13462;50.764;4.332;2022-12-07T05:26:29;4.60;99.90
25582;DHT22;13462;50.764;4.332;2022-12-07T05:29:00;4.50;99.90
25582;DHT22;13462;50.764;4.332;2022-12-07T05:45:13;4.40;99.90
25582;DHT22;13462;50.764;4.332;2022-12-07T05:47:39;4.30;99.90
25582;DHT22;13462;50.764;4.332;2022-12-07T05:50:08;4.30;99.90
25582;DHT22;13462;50.764;4.332;2022-12-07T05:52:33;4.40;99.90
25582;DHT22;13462;50.764;4.332;2022-12-07T05:54:59;4.30;99.90
25582;DHT22;13462;50.764;4.332;2022-12-07T05:57:25;4.40;99.90
25582;DHT22;13462;50.764;4.332;2022-12-07T05:59:51;4.50;99.90
25582;DHT22;13462;50.764;4.332;2022-12-07T06:02:17;4.60;99.90
25582;DHT22;13462;50.764;4.332;2022-12-07T06:04:45;4.50;99.90
25582;DHT22;13462;50.764;4.332;2022-12-07T06:07:13;4.40;99.90
25582;DHT22;13462;50.764;4.332;2022-12-07T06:09:39;4.40;99.90
25582;DHT22;13462;50.764;4.332;2022-12-07T06:12:05;4.30;99.90
25582;DHT22;13462;50.764;4.332;2022-12-07T06:14:50;4.30;99.90
25582;DHT22;13462;50.764;4.332;2022-12-07T06:17:15;4.40;99.90
25582;DHT22;13462;50.764;4.332;2022-12-07T06:19:41;4.40;99.90
25582;DHT22;13462;50.764;4.332;2022-12-07T06:22:07;4.50;99.90
25582;DHT22;13462;50.764;4.332;2022-12-07T06:24:34;4.50;99.90
25582;DHT22;13462;50.764;4.332;2022-12-07T06:27:00;4.50;99.90
25582;DHT22;13462;50.764;4.332;2022-12-07T06:29:25;4.40;99.90
25582;DHT22;13462;50.764;4.332;2022-12-07T06:31:51;4.30;99.90
25582;DHT22;13462;50.764;4.332;2022-12-07T06:34:19;4.40;99.90
25582;DHT22;13462;50.764;4.332;2022-12-07T06:36:46;4.30;99.90
25582;DHT22;13462;50.764;4.332;2022-12-07T06:39:16;4.40;99.90
25582;DHT22;13462;50.764;4.332;2022-12-07T06:41:42;4.40;99.90
25582;DHT22;13462;50.764;4.332;2022-12-07T06:44:07;4.40;99.90
25582;DHT22;13462;50.764;4.332;2022-12-07T06:46:33;4.40;99.90
25582;DHT22;13462;50.764;4.332;2022-12-07T06:49:01;4.40;99.90
25582;DHT22;13462;50.764;4.332;2022-12-07T06:51:26;4.40;99.90
25582;DHT22;13462;50.764;4.332;2022-12-07T06:53:52;4.30;99.90
25582;DHT22;13462;50.764;4.332;2022-12-07T06:56:18;4.40;99.90
25582;DHT22;13462;50.764;4.332;2022-12-07T06:58:43;4.50;99.90
25582;DHT22;13462;50.764;4.332;2022-12-07T07:01:14;4.50;99.90
25582;DHT22;13462;50.764;4.332;2022-12-07T07:03:40;4.50;99.90
25582;DHT22;13462;50.764;4.332;2022-12-07T07:06:07;4.60;99.90
25582;DHT22;13462;50.764;4.332;2022-12-07T07:08:34;4.90;99.90
25582;DHT22;13462;50.764;4.332;2022-12-07T07:11:00;4.80;99.90
25582;DHT22;13462;50.764;4.332;2022-12-07T07:13:27;4.70;99.90
25582;DHT22;13462;50.764;4.332;2022-12-07T07:15:53;4.70;99.90
25582;DHT22;13462;50.764;4.332;2022-12-07T07:18:18;4.60;99.90
25582;DHT22;13462;50.764;4.332;2022-12-07T07:20:44;4.60;99.90
25582;DHT22;13462;50.764;4.332;2022-12-07T07:23:09;4.70;99.90
25582;DHT22;13462;50.764;4.332;2022-12-07T07:25:35;4.70;99.90
25582;DHT22;13462;50.764;4.332;2022-12-07T07:28:01;4.50;99.90
25582;DHT22;13462;50.764;4.332;2022-12-07T07:30:27;4.50;99.90
25582;DHT22;13462;50.764;4.332;2022-12-07T07:33:00;4.50;99.90
25582;DHT22;13462;50.764;4.332;2022-12-07T07:35:27;4.60;99.90
25582;DHT22;13462;50.764;4.332;2022-12-07T07:37:54;4.60;99.90
25582;DHT22;13462;50.764;4.332;2022-12-07T07:40:20;4.60;99.90
25582;DHT22;13462;50.764;4.332;2022-12-07T07:42:50;4.80;99.90
25582;DHT22;13462;50.764;4.332;2022-12-07T07:45:16;4.80;99.90
25582;DHT22;13462;50.764;4.332;2022-12-07T07:47:45;4.80;99.90
25582;DHT22;13462;50.764;4.332;2022-12-07T07:50:18;4.70;99.90
25582;DHT22;13462;50.764;4.332;2022-12-07T07:52:45;4.70;99.90
25582;DHT22;13462;50.764;4.332;2022-12-07T07:55:11;4.70;99.90
25582;DHT22;13462;50.764;4.332;2022-12-07T07:57:38;4.80;99.90
25582;DHT22;13462;50.764;4.332;2022-12-07T08:00:09;4.80;99.90
25582;DHT22;13462;50.764;4.332;2022-12-07T08:02:36;4.80;99.90
25582;DHT22;13462;50.764;4.332;2022-12-07T08:05:02;4.90;99.90
25582;DHT22;13462;50.764;4.332;2022-12-07T08:07:30;5.00;99.90
25582;DHT22;13462;50.764;4.332;2022-12-07T08:09:56;5.10;99.90
25582;DHT22;13462;50.764;4.332;2022-12-07T08:12:22;5.10;99.90
25582;DHT22;13462;50.764;4.332;2022-12-07T08:14:50;5.10;99.90
25582;DHT22;13462;50.764;4.332;2022-12-07T08:17:16;5.20;99.90
25582;DHT22;13462;50.764;4.332;2022-12-07T08:19:45;5.40;99.90
25582;DHT22;13462;50.764;4.332;2022-12-07T08:22:13;5.20;99.90
25582;DHT22;13462;50.764;4.332;2022-12-07T08:24:39;5.00;99.90
25582;DHT22;13462;50.764;4.332;2022-12-07T08:27:05;5.00;99.90
25582;DHT22;13462;50.764;4.332;2022-12-07T08:29:31;5.00;99.90
25582;DHT22;13462;50.764;4.332;2022-12-07T08:31:57;5.00;99.90
25582;DHT22;13462;50.764;4.332;2022-12-07T08:34:26;5.00;99.90
25582;DHT22;13462;50.764;4.332;2022-12-07T08:36:54;5.00;99.90
25582;DHT22;13462;50.764;4.332;2022-12-07T08:39:20;5.00;99.90
25582;DHT22;13462;50.764;4.332;2022-12-07T08:41:46;5.10;99.90
25582;DHT22;13462;50.764;4.332;2022-12-07T08:44:12;5.20;99.90
25582;DHT22;13462;50.764;4.332;2022-12-07T08:46:46;5.20;99.90
25582;DHT22;13462;50.764;4.332;2022-12-07T08:49:18;5.40;99.90
25582;DHT22;13462;50.764;4.332;2022-12-07T08:51:44;5.50;99.90
25582;DHT22;13462;50.764;4.332;2022-12-07T08:54:13;5.80;99.90
25582;DHT22;13462;50.764;4.332;2022-12-07T08:56:40;6.00;99.90
25582;DHT22;13462;50.764;4.332;2022-12-07T08:59:06;6.30;99.90
25582;DHT22;13462;50.764;4.332;2022-12-07T09:01:32;6.50;99.90
25582;DHT22;13462;50.764;4.332;2022-12-07T09:03:58;6.90;99.90
25582;DHT22;13462;50.764;4.332;2022-12-07T09:06:24;7.30;99.90
25582;DHT22;13462;50.764;4.332;2022-12-07T09:08:53;7.20;99.90
25582;DHT22;13462;50.764;4.332;2022-12-07T09:11:20;7.40;99.90
25582;DHT22;13462;50.764;4.332;2022-12-07T09:13:46;7.30;99.90
25582;DHT22;13462;50.764;4.332;2022-12-07T09:16:14;7.00;99.90
25582;DHT22;13462;50.764;4.332;2022-12-07T09:18:40;7.10;99.90
25582;DHT22;13462;50.764;4.332;2022-12-07T09:21:07;7.10;99.90
25582;DHT22;13462;50.764;4.332;2022-12-07T09:23:33;7.00;99.90
25582;DHT22;13462;50.764;4.332;2022-12-07T09:26:05;7.10;99.90
25582;DHT22;13462;50.764;4.332;2022-12-07T09:28:31;7.10;99.90
25582;DHT22;13462;50.764;4.332;2022-12-07T09:30:57;7.20;99.90
25582;DHT22;13462;50.764;4.332;2022-12-07T09:33:23;7.30;99.90
25582;DHT22;13462;50.764;4.332;2022-12-07T09:35:50;7.50;99.90
25582;DHT22;13462;50.764;4.332;2022-12-07T09:38:17;8.00;99.90
25582;DHT22;13462;50.764;4.332;2022-12-07T09:40:43;9.20;99.90
25582;DHT22;13462;50.764;4.332;2022-12-07T09:43:21;10.60;99.90
25582;DHT22;13462;50.764;4.332;2022-12-07T09:45:58;11.90;99.90
25582;DHT22;13462;50.764;4.332;2022-12-07T09:48:30;13.70;99.90
25582;DHT22;13462;50.764;4.332;2022-12-07T09:50:58;14.90;99.90
25582;DHT22;13462;50.764;4.332;2022-12-07T09:53:32;14.80;99.90
25582;DHT22;13462;50.764;4.332;2022-12-07T09:55:59;14.30;99.90
25582;DHT22;13462;50.764;4.332;2022-12-07T09:58:27;14.00;99.90
25582;DHT22;13462;50.764;4.332;2022-12-07T10:01:05;13.30;99.90
25582;DHT22;13462;50.764;4.332;2022-12-07T10:03:39;13.20;99.90
25582;DHT22;13462;50.764;4.332;2022-12-07T10:06:06;14.00;99.90
25582;DHT22;13462;50.764;4.332;2022-12-07T10:08:33;14.30;99.90
25582;DHT22;13462;50.764;4.332;2022-12-07T10:11:01;14.00;99.90
25582;DHT22;13462;50.764;4.332;2022-12-07T10:13:40;13.40;99.90
25582;DHT22;13462;50.764;4.332;2022-12-07T10:16:10;12.60;99.90
25582;DHT22;13462;50.764;4.332;2022-12-07T10:18:53;11.90;99.90
25582;DHT22;13462;50.764;4.332;2022-12-07T10:21:26;10.80;99.90
25582;DHT22;13462;50.764;4.332;2022-12-07T10:26:50;9.40;99.90
25582;DHT22;13462;50.764;4.332;2022-12-07T10:29:37;8.80;99.90
25582;DHT22;13462;50.764;4.332;2022-12-07T10:32:05;8.70;99.90
25582;DHT22;13462;50.764;4.332;2022-12-07T10:34:37;8.40;99.90
25582;DHT22;13462;50.764;4.332;2022-12-07T10:42:23;8.30;99.90
25582;DHT22;13462;50.764;4.332;2022-12-07T10:45:06;8.30;99.90
25582;DHT22;13462;50.764;4.332;2022-12-07T10:47:51;8.60;99.90
25582;DHT22;13462;50.764;4.332;2022-12-07T10:50:41;8.40;99.90
25582;DHT22;13462;50.764;4.332;2022-12-07T11:01:57;8.60;99.90
25582;DHT22;13462;50.764;4.332;2022-12-07T11:11:11;8.90;99.90
25582;DHT22;13462;50.764;4.332;2022-12-07T11:14:19;8.60;99.90
25582;DHT22;13462;50.764;4.332;2022-12-07T11:17:35;8.50;99.90
25582;DHT22;13462;50.764;4.332;2022-12-07T11:20:13;8.50;99.90
25582;DHT22;13462;50.764;4.332;2022-12-07T11:25:23;8.60;99.90
25582;DHT22;13462;50.764;4.332;2022-12-07T11:28:03;8.50;99.90
25582;DHT22;13462;50.764;4.332;2022-12-07T11:30:46;8.30;99.90
25582;DHT22;13462;50.764;4.332;2022-12-07T11:33:26;8.40;99.90
25582;DHT22;13462;50.764;4.332;2022-12-07T11:36:04;8.40;99.90
25582;DHT22;13462;50.764;4.332;2022-12-07T11:38:42;8.50;99.90
25582;DHT22;13462;50.764;4.332;2022-12-07T11:41:10;8.80;99.90
25582;DHT22;13462;50.764;4.332;2022-12-07T11:43:52;9.00;99.90
25582;DHT22;13462;50.764;4.332;2022-12-07T11:46:20;9.00;99.90
25582;DHT22;13462;50.764;4.332;2022-12-07T11:49:03;9.10;99.90
25582;DHT22;13462;50.764;4.332;2022-12-07T11:51:36;8.90;99.90
25582;DHT22;13462;50.764;4.332;2022-12-07T11:54:11;8.50;99.90
25582;DHT22;13462;50.764;4.332;2022-12-07T11:56:38;8.50;99.90
25582;DHT22;13462;50.764;4.332;2022-12-07T11:59:15;8.50;99.90
25582;DHT22;13462;50.764;4.332;2022-12-07T12:01:52;8.60;99.90
25582;DHT22;13462;50.764;4.332;2022-12-07T12:06:53;8.70;99.90
25582;DHT22;13462;50.764;4.332;2022-12-07T12:09:31;8.40;99.90
25582;DHT22;13462;50.764;4.332;2022-12-07T12:17:47;8.40;99.90
25582;DHT22;13462;50.764;4.332;2022-12-07T12:20:44;8.50;99.90
25582;DHT22;13462;50.764;4.332;2022-12-07T12:26:21;9.60;99.90
25582;DHT22;13462;50.764;4.332;2022-12-07T12:28:57;10.10;99.90
25582;DHT22;13462;50.764;4.332;2022-12-07T12:33:57;10.70;99.90
25582;DHT22;13462;50.764;4.332;2022-12-07T12:46:46;8.90;99.90
25582;DHT22;13462;50.764;4.332;2022-12-07T12:56:58;8.70;99.90
25582;DHT22;13462;50.764;4.332;2022-12-07T12:59:30;8.60;99.90
25582;DHT22;13462;50.764;4.332;2022-12-07T13:20:51;8.50;99.90
25582;DHT22;13462;50.764;4.332;2022-12-07T13:26:12;8.40;99.90
25582;DHT22;13462;50.764;4.332;2022-12-07T13:28:42;8.50;99.90
25582;DHT22;13462;50.764;4.332;2022-12-07T13:33:57;8.80;99.90
25582;DHT22;13462;50.764;4.332;2022-12-07T13:36:25;8.60;99.90
25582;DHT22;13462;50.764;4.332;2022-12-07T13:38:53;8.50;99.90
25582;DHT22;13462;50.764;4.332;2022-12-07T13:41:21;8.40;99.90
25582;DHT22;13462;50.764;4.332;2022-12-07T13:44:03;8.30;99.90
25582;DHT22;13462;50.764;4.332;2022-12-07T13:49:25;8.50;99.90
25582;DHT22;13462;50.764;4.332;2022-12-07T13:51:52;8.00;99.90
25582;DHT22;13462;50.764;4.332;2022-12-07T13:54:18;7.90;99.90
25582;DHT22;13462;50.764;4.332;2022-12-07T13:56:51;7.90;99.90
25582;DHT22;13462;50.764;4.332;2022-12-07T13:59:21;8.00;99.90
25582;DHT22;13462;50.764;4.332;2022-12-07T14:01:49;8.00;99.90
25582;DHT22;13462;50.764;4.332;2022-12-07T14:04:34;7.90;99.90
25582;DHT22;13462;50.764;4.332;2022-12-07T14:07:01;7.80;99.90
25582;DHT22;13462;50.764;4.332;2022-12-07T14:09:30;7.70;99.90
25582;DHT22;13462;50.764;4.332;2022-12-07T14:11:57;7.50;99.90
25582;DHT22;13462;50.764;4.332;2022-12-07T14:14:30;7.40;99.90
25582;DHT22;13462;50.764;4.332;2022-12-07T14:16:58;7.60;99.90
25582;DHT22;13462;50.764;4.332;2022-12-07T14:48:38;7.30;99.90
25582;DHT22;13462;50.764;4.332;2022-12-07T15:01:24;7.20;99.90
25582;DHT22;13462;50.764;4.332;2022-12-07T15:04:03;7.30;99.90
25582;DHT22;13462;50.764;4.332;2022-12-07T15:06:29;7.20;99.90
25582;DHT22;13462;50.764;4.332;2022-12-07T15:09:00;7.20;99.90
25582;DHT22;13462;50.764;4.332;2022-12-07T15:11:26;7.20;99.90
25582;DHT22;13462;50.764;4.332;2022-12-07T15:13:52;7.20;99.90
25582;DHT22;13462;50.764;4.332;2022-12-07T15:20:14;7.00;99.90
25582;DHT22;13462;50.764;4.332;2022-12-07T15:22:48;6.90;99.90
25582;DHT22;13462;50.764;4.332;2022-12-07T15:25:14;6.80;99.90
25582;DHT22;13462;50.764;4.332;2022-12-07T15:27:42;6.80;99.90
25582;DHT22;13462;50.764;4.332;2022-12-07T15:30:08;6.80;99.90
25582;DHT22;13462;50.764;4.332;2022-12-07T15:32:34;6.90;99.90
25582;DHT22;13462;50.764;4.332;2022-12-07T15:34:59;6.80;99.90
25582;DHT22;13462;50.764;4.332;2022-12-07T15:37:25;6.70;99.90
25582;DHT22;13462;50.764;4.332;2022-12-07T15:39:51;6.60;99.90
25582;DHT22;13462;50.764;4.332;2022-12-07T15:42:17;6.70;99.90
25582;DHT22;13462;50.764;4.332;2022-12-07T15:44:43;6.60;99.90
25582;DHT22;13462;50.764;4.332;2022-12-07T15:47:27;6.50;99.90
25582;DHT22;13462;50.764;4.332;2022-12-07T15:49:55;6.60;99.90
25582;DHT22;13462;50.764;4.332;2022-12-07T15:52:21;6.80;99.90
25582;DHT22;13462;50.764;4.332;2022-12-07T15:54:47;6.90;99.90
25582;DHT22;13462;50.764;4.332;2022-12-07T15:57:15;6.90;99.90
25582;DHT22;13462;50.764;4.332;2022-12-07T15:59:44;6.70;99.90
25582;DHT22;13462;50.764;4.332;2022-12-07T16:02:10;6.60;99.90
25582;DHT22;13462;50.764;4.332;2022-12-07T16:04:36;6.60;99.90
25582;DHT22;13462;50.764;4.332;2022-12-07T16:07:02;6.40;99.90
25582;DHT22;13462;50.764;4.332;2022-12-07T16:09:29;6.10;99.90
25582;DHT22;13462;50.764;4.332;2022-12-07T16:11:55;6.00;99.90
25582;DHT22;13462;50.764;4.332;2022-12-07T16:14:21;6.00;99.90
25582;DHT22;13462;50.764;4.332;2022-12-07T16:16:47;6.10;99.90
25582;DHT22;13462;50.764;4.332;2022-12-07T16:19:13;6.00;99.90
25582;DHT22;13462;50.764;4.332;2022-12-07T16:21:39;6.00;99.90
25582;DHT22;13462;50.764;4.332;2022-12-07T16:24:06;5.90;99.90
25582;DHT22;13462;50.764;4.332;2022-12-07T16:26:32;5.90;99.90
25582;DHT22;13462;50.764;4.332;2022-12-07T16:28:58;6.00;99.90
25582;DHT22;13462;50.764;4.332;2022-12-07T16:31:25;6.00;99.90
25582;DHT22;13462;50.764;4.332;2022-12-07T16:33:56;5.90;99.90
25582;DHT22;13462;50.764;4.332;2022-12-07T16:36:23;5.90;99.90
25582;DHT22;13462;50.764;4.332;2022-12-07T16:38:50;5.90;99.90
25582;DHT22;13462;50.764;4.332;2022-12-07T16:41:16;5.90;99.90
25582;DHT22;13462;50.764;4.332;2022-12-07T16:43:43;5.90;99.90
25582;DHT22;13462;50.764;4.332;2022-12-07T16:46:09;6.10;99.90
25582;DHT22;13462;50.764;4.332;2022-12-07T16:48:36;6.10;99.90
25582;DHT22;13462;50.764;4.332;2022-12-07T16:51:05;6.10;99.90
25582;DHT22;13462;50.764;4.332;2022-12-07T16:53:31;6.00;99.90
25582;DHT22;13462;50.764;4.332;2022-12-07T16:55:56;6.00;99.90
25582;DHT22;13462;50.764;4.332;2022-12-07T16:58:22;5.90;99.90
25582;DHT22;13462;50.764;4.332;2022-12-07T17:00:47;5.80;99.90
25582;DHT22;13462;50.764;4.332;2022-12-07T17:03:13;5.60;99.90
25582;DHT22;13462;50.764;4.332;2022-12-07T17:05:41;5.60;99.90
25582;DHT22;13462;50.764;4.332;2022-12-07T17:08:07;5.60;99.90
25582;DHT22;13462;50.764;4.332;2022-12-07T17:10:35;5.40;99.90
25582;DHT22;13462;50.764;4.332;2022-12-07T17:13:02;5.40;99.90
25582;DHT22;13462;50.764;4.332;2022-12-07T17:16:01;5.40;99.90
25582;DHT22;13462;50.764;4.332;2022-12-07T17:18:30;5.40;99.90
25582;DHT22;13462;50.764;4.332;2022-12-07T17:20:55;5.40;99.90
25582;DHT22;13462;50.764;4.332;2022-12-07T17:23:21;5.50;99.90
25582;DHT22;13462;50.764;4.332;2022-12-07T17:25:47;5.60;99.90
25582;DHT22;13462;50.764;4.332;2022-12-07T17:28:13;5.50;99.90
25582;DHT22;13462;50.764;4.332;2022-12-07T17:30:39;5.60;99.90
25582;DHT22;13462;50.764;4.332;2022-12-07T17:33:04;5.60;99.90
25582;DHT22;13462;50.764;4.332;2022-12-07T17:35:30;5.60;99.90
25582;DHT22;13462;50.764;4.332;2022-12-07T17:37:55;5.70;99.90
25582;DHT22;13462;50.764;4.332;2022-12-07T17:40:21;5.70;99.90
25582;DHT22;13462;50.764;4.332;2022-12-07T17:42:47;5.70;99.90
25582;DHT22;13462;50.764;4.332;2022-12-07T17:45:15;5.70;99.90
25582;DHT22;13462;50.764;4.332;2022-12-07T17:47:42;5.70;99.90
25582;DHT22;13462;50.764;4.332;2022-12-07T17:50:08;5.70;99.90
25582;DHT22;13462;50.764;4.332;2022-12-07T17:52:38;5.70;99.90
25582;DHT22;13462;50.764;4.332;2022-12-07T17:55:23;5.70;99.90
25582;DHT22;13462;50.764;4.332;2022-12-07T17:57:48;5.70;99.90
25582;DHT22;13462;50.764;4.332;2022-12-07T18:00:15;5.60;99.90
25582;DHT22;13462;50.764;4.332;2022-12-07T18:02:41;5.70;99.90
25582;DHT22;13462;50.764;4.332;2022-12-07T18:05:06;5.80;99.90
25582;DHT22;13462;50.764;4.332;2022-12-07T18:07:32;5.90;99.90
25582;DHT22;13462;50.764;4.332;2022-12-07T18:09:58;6.00;99.90
25582;DHT22;13462;50.764;4.332;2022-12-07T18:12:24;6.00;99.90
25582;DHT22;13462;50.764;4.332;2022-12-07T18:14:49;6.10;99.90
25582;DHT22;13462;50.764;4.332;2022-12-07T18:17:16;5.90;99.90
25582;DHT22;13462;50.764;4.332;2022-12-07T18:19:42;5.80;99.90
25582;DHT22;13462;50.764;4.332;2022-12-07T18:22:07;5.70;99.90
25582;DHT22;13462;50.764;4.332;2022-12-07T18:24:33;5.60;99.90
25582;DHT22;13462;50.764;4.332;2022-12-07T18:26:59;5.70;99.90
25582;DHT22;13462;50.764;4.332;2022-12-07T18:29:24;5.60;99.90
25582;DHT22;13462;50.764;4.332;2022-12-07T18:31:50;5.70;99.90
25582;DHT22;13462;50.764;4.332;2022-12-07T18:34:17;5.70;99.90
25582;DHT22;13462;50.764;4.332;2022-12-07T18:36:45;5.60;99.90
25582;DHT22;13462;50.764;4.332;2022-12-07T18:39:11;5.60;99.90
25582;DHT22;13462;50.764;4.332;2022-12-07T18:41:38;5.60;99.90
25582;DHT22;13462;50.764;4.332;2022-12-07T18:44:04;5.70;99.90
25582;DHT22;13462;50.764;4.332;2022-12-07T18:46:30;5.70;99.90
25582;DHT22;13462;50.764;4.332;2022-12-07T18:48:56;5.80;99.90
25582;DHT22;13462;50.764;4.332;2022-12-07T18:51:22;5.70;99.90
25582;DHT22;13462;50.764;4.332;2022-12-07T18:53:48;5.70;99.90
25582;DHT22;13462;50.764;4.332;2022-12-07T18:56:19;5.70;99.90
25582;DHT22;13462;50.764;4.332;2022-12-07T18:58:56;5.60;99.90
25582;DHT22;13462;50.764;4.332;2022-12-07T19:01:42;5.60;99.90
25582;DHT22;13462;50.764;4.332;2022-12-07T19:04:08;5.70;99.90
25582;DHT22;13462;50.764;4.332;2022-12-07T19:06:34;5.60;99.90
25582;DHT22;13462;50.764;4.332;2022-12-07T19:09:00;5.30;99.90
25582;DHT22;13462;50.764;4.332;2022-12-07T19:11:28;5.20;99.90
25582;DHT22;13462;50.764;4.332;2022-12-07T19:14:13;5.10;99.90
25582;DHT22;13462;50.764;4.332;2022-12-07T19:16:41;4.90;99.90
25582;DHT22;13462;50.764;4.332;2022-12-07T19:19:06;4.80;99.90
25582;DHT22;13462;50.764;4.332;2022-12-07T19:21:32;4.80;99.90
25582;DHT22;13462;50.764;4.332;2022-12-07T19:23:57;4.80;99.90
25582;DHT22;13462;50.764;4.332;2022-12-07T19:26:23;4.70;99.90
25582;DHT22;13462;50.764;4.332;2022-12-07T19:28:49;4.80;99.90
25582;DHT22;13462;50.764;4.332;2022-12-07T19:31:15;4.80;99.90
25582;DHT22;13462;50.764;4.332;2022-12-07T19:33:41;4.90;99.90
25582;DHT22;13462;50.764;4.332;2022-12-07T19:36:07;4.80;99.90
25582;DHT22;13462;50.764;4.332;2022-12-07T19:38:33;4.80;99.90
25582;DHT22;13462;50.764;4.332;2022-12-07T19:41:07;4.70;99.90
25582;DHT22;13462;50.764;4.332;2022-12-07T19:43:33;4.70;99.90
25582;DHT22;13462;50.764;4.332;2022-12-07T19:46:05;4.60;99.90
25582;DHT22;13462;50.764;4.332;2022-12-07T19:48:33;4.70;99.90
25582;DHT22;13462;50.764;4.332;2022-12-07T19:51:05;4.70;99.90
25582;DHT22;13462;50.764;4.332;2022-12-07T19:53:31;4.70;99.90
25582;DHT22;13462;50.764;4.332;2022-12-07T19:55:57;4.70;99.90
25582;DHT22;13462;50.764;4.332;2022-12-07T19:58:23;4.80;99.90
25582;DHT22;13462;50.764;4.332;2022-12-07T20:00:48;4.90;99.90